sensor_id;sensor_type;location;lat;lon;timestamp;P1;durP1;ratioP1;P2;durP2;ratioP2
26977;SDS011;56314;48.088;11.642;2022-12-20T00:01:29;8.05;;;4.55;;
26977;SDS011;56314;48.088;11.642;2022-12-20T00:03:57;7.70;;;4.10;;
26977;SDS011;56314;48.088;11.642;2022-12-20T00:06:26;6.47;;;4.07;;
26977;SDS011;56314;48.088;11.642;2022-12-20T00:08:53;6.03;;;4.05;;
26977;SDS011;56314;48.088;11.642;2022-12-20T00:11:20;7.32;;;4.35;;
26977;SDS011;56314;48.088;11.642;2022-12-20T00:13:45;6.82;;;3.63;;
26977;SDS011;56314;48.088;11.642;2022-12-20T00:16:16;5.05;;;3.88;;
26977;SDS011;56314;48.088;11.642;2022-12-20T00:18:43;6.65;;;4.20;;
26977;SDS011;56314;48.088;11.642;2022-12-20T00:21:09;6.75;;;4.00;;
26977;SDS011;56314;48.088;11.642;2022-12-20T00:23:37;10.10;;;4.47;;
26977;SDS011;56314;48.088;11.642;2022-12-20T00:26:04;7.82;;;4.82;;
26977;SDS011;56314;48.088;11.642;2022-12-20T00:28:41;8.48;;;4.78;;
26977;SDS011;56314;48.088;11.642;2022-12-20T00:31:09;9.30;;;4.80;;
26977;SDS011;56314;48.088;11.642;2022-12-20T00:33:36;7.40;;;4.72;;
26977;SDS011;56314;48.088;11.642;2022-12-20T00:36:03;9.15;;;5.10;;
26977;SDS011;56314;48.088;11.642;2022-12-20T00:38:29;7.35;;;5.00;;
26977;SDS011;56314;48.088;11.642;2022-12-20T00:40:59;7.07;;;5.30;;
26977;SDS011;56314;48.088;11.642;2022-12-20T00:43:25;7.35;;;4.95;;
26977;SDS011;56314;48.088;11.642;2022-12-20T00:45:52;8.30;;;5.28;;
26977;SDS011;56314;48.088;11.642;2022-12-20T00:48:18;6.70;;;4.85;;
26977;SDS011;56314;48.088;11.642;2022-12-20T00:50:43;9.98;;;4.93;;
26977;SDS011;56314;48.088;11.642;2022-12-20T00:53:08;8.00;;;4.63;;
26977;SDS011;56314;48.088;11.642;2022-12-20T00:55:34;5.95;;;3.90;;
26977;SDS011;56314;48.088;11.642;2022-12-20T00:58:04;7.65;;;4.03;;
26977;SDS011;56314;48.088;11.642;2022-12-20T01:00:30;5.43;;;3.63;;
26977;SDS011;56314;48.088;11.642;2022-12-20T01:02:55;7.28;;;3.80;;
26977;SDS011;56314;48.088;11.642;2022-12-20T01:05:21;5.35;;;3.72;;
26977;SDS011;56314;48.088;11.642;2022-12-20T01:07:46;5.97;;;3.72;;
26977;SDS011;56314;48.088;11.642;2022-12-20T01:10:11;7.13;;;4.00;;
26977;SDS011;56314;48.088;11.642;2022-12-20T01:12:37;5.03;;;3.13;;
26977;SDS011;56314;48.088;11.642;2022-12-20T01:15:02;6.13;;;3.20;;
26977;SDS011;56314;48.088;11.642;2022-12-20T01:17:28;6.85;;;3.40;;
26977;SDS011;56314;48.088;11.642;2022-12-20T01:19:54;6.88;;;3.45;;
26977;SDS011;56314;48.088;11.642;2022-12-20T01:22:19;6.13;;;3.58;;
26977;SDS011;56314;48.088;11.642;2022-12-20T01:24:44;5.70;;;3.25;;
26977;SDS011;56314;48.088;11.642;2022-12-20T01:27:10;5.85;;;3.13;;
26977;SDS011;56314;48.088;11.642;2022-12-20T01:29:35;4.43;;;3.28;;
26977;SDS011;56314;48.088;11.642;2022-12-20T01:32:00;6.00;;;3.10;;
26977;SDS011;56314;48.088;11.642;2022-12-20T01:34:26;3.55;;;2.60;;
26977;SDS011;56314;48.088;11.642;2022-12-20T01:36:51;4.63;;;2.90;;
26977;SDS011;56314;48.088;11.642;2022-12-20T01:39:16;3.38;;;2.30;;
26977;SDS011;56314;48.088;11.642;2022-12-20T01:41:42;3.78;;;2.88;;
26977;SDS011;56314;48.088;11.642;2022-12-20T01:46:43;4.68;;;2.90;;
26977;SDS011;56314;48.088;11.642;2022-12-20T01:51:40;6.03;;;2.92;;
26977;SDS011;56314;48.088;11.642;2022-12-20T01:54:13;4.50;;;2.80;;
26977;SDS011;56314;48.088;11.642;2022-12-20T01:56:49;6.93;;;2.55;;
26977;SDS011;56314;48.088;11.642;2022-12-20T01:59:18;5.40;;;3.08;;
26977;SDS011;56314;48.088;11.642;2022-12-20T02:01:44;4.55;;;2.83;;
26977;SDS011;56314;48.088;11.642;2022-12-20T02:04:10;3.78;;;2.65;;
26977;SDS011;56314;48.088;11.642;2022-12-20T02:06:35;4.32;;;2.80;;
26977;SDS011;56314;48.088;11.642;2022-12-20T02:09:01;5.18;;;3.30;;
26977;SDS011;56314;48.088;11.642;2022-12-20T02:11:38;3.70;;;3.20;;
26977;SDS011;56314;48.088;11.642;2022-12-20T02:16:46;6.25;;;2.70;;
26977;SDS011;56314;48.088;11.642;2022-12-20T02:19:25;5.57;;;3.55;;
26977;SDS011;56314;48.088;11.642;2022-12-20T02:22:29;5.18;;;3.42;;
26977;SDS011;56314;48.088;11.642;2022-12-20T02:28:32;3.97;;;2.88;;
26977;SDS011;56314;48.088;11.642;2022-12-20T02:31:14;5.38;;;3.17;;
26977;SDS011;56314;48.088;11.642;2022-12-20T02:33:45;6.68;;;3.47;;
26977;SDS011;56314;48.088;11.642;2022-12-20T02:36:16;5.50;;;3.70;;
26977;SDS011;56314;48.088;11.642;2022-12-20T02:38:42;8.40;;;3.95;;
26977;SDS011;56314;48.088;11.642;2022-12-20T02:41:22;5.32;;;2.95;;
26977;SDS011;56314;48.088;11.642;2022-12-20T02:43:55;6.78;;;4.03;;
26977;SDS011;56314;48.088;11.642;2022-12-20T02:46:45;5.15;;;3.28;;
26977;SDS011;56314;48.088;11.642;2022-12-20T02:49:13;4.13;;;3.00;;
26977;SDS011;56314;48.088;11.642;2022-12-20T02:51:46;4.53;;;2.55;;
26977;SDS011;56314;48.088;11.642;2022-12-20T02:54:15;4.45;;;3.00;;
26977;SDS011;56314;48.088;11.642;2022-12-20T02:56:53;3.63;;;2.42;;
26977;SDS011;56314;48.088;11.642;2022-12-20T02:59:44;6.10;;;2.30;;
26977;SDS011;56314;48.088;11.642;2022-12-20T03:02:19;3.90;;;2.60;;
26977;SDS011;56314;48.088;11.642;2022-12-20T03:04:45;4.00;;;2.25;;
26977;SDS011;56314;48.088;11.642;2022-12-20T03:07:12;2.67;;;2.13;;
26977;SDS011;56314;48.088;11.642;2022-12-20T03:09:42;4.63;;;2.60;;
26977;SDS011;56314;48.088;11.642;2022-12-20T03:12:09;4.63;;;2.30;;
26977;SDS011;56314;48.088;11.642;2022-12-20T03:14:36;5.13;;;2.83;;
26977;SDS011;56314;48.088;11.642;2022-12-20T03:17:01;3.42;;;2.90;;
26977;SDS011;56314;48.088;11.642;2022-12-20T03:19:27;3.97;;;2.25;;
26977;SDS011;56314;48.088;11.642;2022-12-20T03:21:53;7.03;;;2.30;;
26977;SDS011;56314;48.088;11.642;2022-12-20T03:24:18;3.00;;;1.83;;
26977;SDS011;56314;48.088;11.642;2022-12-20T03:26:44;3.85;;;2.03;;
26977;SDS011;56314;48.088;11.642;2022-12-20T03:29:09;4.22;;;2.45;;
26977;SDS011;56314;48.088;11.642;2022-12-20T03:31:35;2.50;;;2.15;;
26977;SDS011;56314;48.088;11.642;2022-12-20T03:34:01;2.55;;;1.80;;
26977;SDS011;56314;48.088;11.642;2022-12-20T03:36:27;2.95;;;2.03;;
26977;SDS011;56314;48.088;11.642;2022-12-20T03:38:53;3.22;;;1.65;;
26977;SDS011;56314;48.088;11.642;2022-12-20T03:41:20;3.55;;;2.40;;
26977;SDS011;56314;48.088;11.642;2022-12-20T03:43:46;3.55;;;2.40;;
26977;SDS011;56314;48.088;11.642;2022-12-20T03:46:12;3.67;;;2.17;;
26977;SDS011;56314;48.088;11.642;2022-12-20T03:48:38;3.05;;;2.25;;
26977;SDS011;56314;48.088;11.642;2022-12-20T03:51:04;2.78;;;2.03;;
26977;SDS011;56314;48.088;11.642;2022-12-20T03:53:29;3.05;;;2.05;;
26977;SDS011;56314;48.088;11.642;2022-12-20T03:55:54;4.40;;;2.30;;
26977;SDS011;56314;48.088;11.642;2022-12-20T03:58:20;3.22;;;2.47;;
26977;SDS011;56314;48.088;11.642;2022-12-20T04:00:45;2.35;;;2.15;;
26977;SDS011;56314;48.088;11.642;2022-12-20T04:03:11;2.80;;;2.40;;
26977;SDS011;56314;48.088;11.642;2022-12-20T04:05:37;5.45;;;2.90;;
26977;SDS011;56314;48.088;11.642;2022-12-20T04:08:02;7.35;;;3.17;;
26977;SDS011;56314;48.088;11.642;2022-12-20T04:10:28;3.97;;;2.70;;
26977;SDS011;56314;48.088;11.642;2022-12-20T04:12:53;5.28;;;3.15;;
26977;SDS011;56314;48.088;11.642;2022-12-20T04:15:18;6.03;;;2.92;;
26977;SDS011;56314;48.088;11.642;2022-12-20T04:17:44;10.25;;;6.30;;
26977;SDS011;56314;48.088;11.642;2022-12-20T04:20:12;4.45;;;3.17;;
26977;SDS011;56314;48.088;11.642;2022-12-20T04:22:48;4.75;;;3.00;;
26977;SDS011;56314;48.088;11.642;2022-12-20T04:25:16;4.65;;;3.10;;
26977;SDS011;56314;48.088;11.642;2022-12-20T04:27:43;4.07;;;2.88;;
26977;SDS011;56314;48.088;11.642;2022-12-20T04:30:09;4.68;;;2.83;;
26977;SDS011;56314;48.088;11.642;2022-12-20T04:32:35;4.30;;;2.97;;
26977;SDS011;56314;48.088;11.642;2022-12-20T04:35:00;4.45;;;2.63;;
26977;SDS011;56314;48.088;11.642;2022-12-20T04:37:26;4.00;;;2.28;;
26977;SDS011;56314;48.088;11.642;2022-12-20T04:39:51;4.00;;;2.78;;
26977;SDS011;56314;48.088;11.642;2022-12-20T04:42:16;5.13;;;2.40;;
26977;SDS011;56314;48.088;11.642;2022-12-20T04:44:42;6.22;;;2.40;;
26977;SDS011;56314;48.088;11.642;2022-12-20T04:47:07;4.00;;;2.53;;
26977;SDS011;56314;48.088;11.642;2022-12-20T04:49:34;3.33;;;2.42;;
26977;SDS011;56314;48.088;11.642;2022-12-20T04:51:59;3.17;;;2.20;;
26977;SDS011;56314;48.088;11.642;2022-12-20T04:54:45;7.18;;;3.95;;
26977;SDS011;56314;48.088;11.642;2022-12-20T04:57:10;3.58;;;2.60;;
26977;SDS011;56314;48.088;11.642;2022-12-20T04:59:35;3.22;;;2.35;;
26977;SDS011;56314;48.088;11.642;2022-12-20T05:02:01;2.70;;;2.00;;
26977;SDS011;56314;48.088;11.642;2022-12-20T05:04:26;3.50;;;2.20;;
26977;SDS011;56314;48.088;11.642;2022-12-20T05:06:51;5.43;;;2.70;;
26977;SDS011;56314;48.088;11.642;2022-12-20T05:09:17;4.32;;;2.40;;
26977;SDS011;56314;48.088;11.642;2022-12-20T05:11:42;2.58;;;1.73;;
26977;SDS011;56314;48.088;11.642;2022-12-20T05:14:08;4.03;;;1.90;;
26977;SDS011;56314;48.088;11.642;2022-12-20T05:16:33;2.25;;;1.92;;
26977;SDS011;56314;48.088;11.642;2022-12-20T05:18:58;6.55;;;2.33;;
26977;SDS011;56314;48.088;11.642;2022-12-20T05:21:24;3.40;;;2.22;;
26977;SDS011;56314;48.088;11.642;2022-12-20T05:24:08;3.53;;;1.95;;
26977;SDS011;56314;48.088;11.642;2022-12-20T05:26:52;3.95;;;1.73;;
26977;SDS011;56314;48.088;11.642;2022-12-20T05:29:18;4.63;;;1.90;;
26977;SDS011;56314;48.088;11.642;2022-12-20T05:31:43;4.07;;;2.40;;
26977;SDS011;56314;48.088;11.642;2022-12-20T05:34:09;4.82;;;1.88;;
26977;SDS011;56314;48.088;11.642;2022-12-20T05:36:34;3.47;;;1.98;;
26977;SDS011;56314;48.088;11.642;2022-12-20T05:39:00;2.28;;;1.50;;
26977;SDS011;56314;48.088;11.642;2022-12-20T05:41:25;4.80;;;1.90;;
26977;SDS011;56314;48.088;11.642;2022-12-20T05:43:50;3.50;;;1.80;;
26977;SDS011;56314;48.088;11.642;2022-12-20T05:46:16;3.40;;;2.10;;
26977;SDS011;56314;48.088;11.642;2022-12-20T05:48:41;3.65;;;1.58;;
26977;SDS011;56314;48.088;11.642;2022-12-20T05:51:06;4.80;;;2.03;;
26977;SDS011;56314;48.088;11.642;2022-12-20T05:53:32;4.82;;;2.00;;
26977;SDS011;56314;48.088;11.642;2022-12-20T05:55:58;4.30;;;2.10;;
26977;SDS011;56314;48.088;11.642;2022-12-20T05:58:23;1.85;;;1.33;;
26977;SDS011;56314;48.088;11.642;2022-12-20T06:00:49;5.63;;;2.03;;
26977;SDS011;56314;48.088;11.642;2022-12-20T06:03:14;3.67;;;2.42;;
26977;SDS011;56314;48.088;11.642;2022-12-20T06:05:40;3.05;;;1.85;;
26977;SDS011;56314;48.088;11.642;2022-12-20T06:08:07;5.88;;;2.92;;
26977;SDS011;56314;48.088;11.642;2022-12-20T06:10:34;6.05;;;2.55;;
26977;SDS011;56314;48.088;11.642;2022-12-20T06:13:00;6.93;;;2.13;;
26977;SDS011;56314;48.088;11.642;2022-12-20T06:15:27;6.95;;;2.72;;
26977;SDS011;56314;48.088;11.642;2022-12-20T06:17:52;6.85;;;2.90;;
26977;SDS011;56314;48.088;11.642;2022-12-20T06:20:18;6.63;;;2.10;;
26977;SDS011;56314;48.088;11.642;2022-12-20T06:22:43;6.30;;;2.40;;
26977;SDS011;56314;48.088;11.642;2022-12-20T06:25:09;10.20;;;2.35;;
26977;SDS011;56314;48.088;11.642;2022-12-20T06:27:35;6.20;;;2.28;;
26977;SDS011;56314;48.088;11.642;2022-12-20T06:30:01;3.05;;;1.90;;
26977;SDS011;56314;48.088;11.642;2022-12-20T06:32:29;5.35;;;2.10;;
26977;SDS011;56314;48.088;11.642;2022-12-20T06:34:55;6.82;;;2.38;;
26977;SDS011;56314;48.088;11.642;2022-12-20T06:37:20;4.68;;;1.90;;
26977;SDS011;56314;48.088;11.642;2022-12-20T06:39:46;4.78;;;1.90;;
26977;SDS011;56314;48.088;11.642;2022-12-20T06:42:11;4.18;;;1.60;;
26977;SDS011;56314;48.088;11.642;2022-12-20T06:44:36;5.20;;;1.60;;
26977;SDS011;56314;48.088;11.642;2022-12-20T06:47:02;2.92;;;2.10;;
26977;SDS011;56314;48.088;11.642;2022-12-20T06:49:27;3.20;;;1.63;;
26977;SDS011;56314;48.088;11.642;2022-12-20T06:51:52;4.63;;;2.10;;
26977;SDS011;56314;48.088;11.642;2022-12-20T06:54:18;2.47;;;1.92;;
26977;SDS011;56314;48.088;11.642;2022-12-20T06:56:43;2.17;;;1.88;;
26977;SDS011;56314;48.088;11.642;2022-12-20T06:59:08;3.88;;;2.33;;
26977;SDS011;56314;48.088;11.642;2022-12-20T07:01:34;4.55;;;2.42;;
26977;SDS011;56314;48.088;11.642;2022-12-20T07:03:59;4.35;;;1.75;;
26977;SDS011;56314;48.088;11.642;2022-12-20T07:06:25;3.05;;;1.90;;
26977;SDS011;56314;48.088;11.642;2022-12-20T07:08:52;3.28;;;2.00;;
26977;SDS011;56314;48.088;11.642;2022-12-20T07:11:18;3.13;;;2.10;;
26977;SDS011;56314;48.088;11.642;2022-12-20T07:13:43;3.70;;;1.90;;
26977;SDS011;56314;48.088;11.642;2022-12-20T07:16:08;3.90;;;2.35;;
26977;SDS011;56314;48.088;11.642;2022-12-20T07:18:34;5.47;;;2.35;;
26977;SDS011;56314;48.088;11.642;2022-12-20T07:21:00;3.50;;;1.88;;
26977;SDS011;56314;48.088;11.642;2022-12-20T07:23:26;4.25;;;2.45;;
26977;SDS011;56314;48.088;11.642;2022-12-20T07:25:52;4.85;;;2.63;;
26977;SDS011;56314;48.088;11.642;2022-12-20T07:28:21;8.00;;;2.75;;
26977;SDS011;56314;48.088;11.642;2022-12-20T07:30:47;4.88;;;2.40;;
26977;SDS011;56314;48.088;11.642;2022-12-20T07:33:13;7.13;;;3.38;;
26977;SDS011;56314;48.088;11.642;2022-12-20T07:35:38;7.88;;;3.22;;
26977;SDS011;56314;48.088;11.642;2022-12-20T07:38:04;4.18;;;3.03;;
26977;SDS011;56314;48.088;11.642;2022-12-20T07:40:29;5.95;;;2.97;;
26977;SDS011;56314;48.088;11.642;2022-12-20T07:42:55;6.25;;;2.83;;
26977;SDS011;56314;48.088;11.642;2022-12-20T07:45:20;8.18;;;2.70;;
26977;SDS011;56314;48.088;11.642;2022-12-20T07:47:45;7.40;;;3.08;;
26977;SDS011;56314;48.088;11.642;2022-12-20T07:50:11;5.75;;;2.92;;
26977;SDS011;56314;48.088;11.642;2022-12-20T07:52:36;4.22;;;2.50;;
26977;SDS011;56314;48.088;11.642;2022-12-20T07:55:04;4.32;;;2.30;;
26977;SDS011;56314;48.088;11.642;2022-12-20T07:57:39;7.28;;;2.72;;
26977;SDS011;56314;48.088;11.642;2022-12-20T08:00:13;2.85;;;1.80;;
26977;SDS011;56314;48.088;11.642;2022-12-20T08:02:41;2.20;;;1.83;;
26977;SDS011;56314;48.088;11.642;2022-12-20T08:05:11;4.95;;;2.17;;
26977;SDS011;56314;48.088;11.642;2022-12-20T08:07:37;3.15;;;2.00;;
26977;SDS011;56314;48.088;11.642;2022-12-20T08:10:06;5.97;;;1.90;;
26977;SDS011;56314;48.088;11.642;2022-12-20T08:12:33;4.70;;;2.42;;
26977;SDS011;56314;48.088;11.642;2022-12-20T08:14:59;2.97;;;1.85;;
26977;SDS011;56314;48.088;11.642;2022-12-20T08:17:24;3.40;;;2.20;;
26977;SDS011;56314;48.088;11.642;2022-12-20T08:19:50;4.63;;;1.83;;
26977;SDS011;56314;48.088;11.642;2022-12-20T08:22:16;3.75;;;2.28;;
26977;SDS011;56314;48.088;11.642;2022-12-20T08:24:43;4.10;;;2.08;;
26977;SDS011;56314;48.088;11.642;2022-12-20T08:27:08;3.50;;;1.95;;
26977;SDS011;56314;48.088;11.642;2022-12-20T08:29:34;3.40;;;2.10;;
26977;SDS011;56314;48.088;11.642;2022-12-20T08:31:59;2.50;;;2.30;;
26977;SDS011;56314;48.088;11.642;2022-12-20T08:34:25;3.80;;;2.08;;
26977;SDS011;56314;48.088;11.642;2022-12-20T08:36:50;3.60;;;2.58;;
26977;SDS011;56314;48.088;11.642;2022-12-20T08:39:16;3.67;;;2.63;;
26977;SDS011;56314;48.088;11.642;2022-12-20T08:41:41;3.70;;;2.55;;
26977;SDS011;56314;48.088;11.642;2022-12-20T08:44:06;5.10;;;2.50;;
26977;SDS011;56314;48.088;11.642;2022-12-20T08:46:32;4.18;;;2.10;;
26977;SDS011;56314;48.088;11.642;2022-12-20T08:48:58;4.88;;;2.53;;
26977;SDS011;56314;48.088;11.642;2022-12-20T08:51:23;4.38;;;2.47;;
26977;SDS011;56314;48.088;11.642;2022-12-20T08:53:48;3.72;;;2.28;;
26977;SDS011;56314;48.088;11.642;2022-12-20T08:56:15;5.10;;;2.42;;
26977;SDS011;56314;48.088;11.642;2022-12-20T08:58:41;7.38;;;2.67;;
26977;SDS011;56314;48.088;11.642;2022-12-20T09:01:09;4.93;;;2.60;;
26977;SDS011;56314;48.088;11.642;2022-12-20T09:03:36;5.05;;;2.55;;
26977;SDS011;56314;48.088;11.642;2022-12-20T09:06:05;5.90;;;2.88;;
26977;SDS011;56314;48.088;11.642;2022-12-20T09:08:34;6.50;;;3.40;;
26977;SDS011;56314;48.088;11.642;2022-12-20T09:11:20;6.88;;;2.90;;
26977;SDS011;56314;48.088;11.642;2022-12-20T09:13:48;4.55;;;2.78;;
26977;SDS011;56314;48.088;11.642;2022-12-20T09:16:15;6.65;;;3.08;;
26977;SDS011;56314;48.088;11.642;2022-12-20T09:18:43;2.95;;;2.33;;
26977;SDS011;56314;48.088;11.642;2022-12-20T09:21:08;4.80;;;2.55;;
26977;SDS011;56314;48.088;11.642;2022-12-20T09:23:35;7.80;;;3.65;;
26977;SDS011;56314;48.088;11.642;2022-12-20T09:26:01;5.25;;;3.38;;
26977;SDS011;56314;48.088;11.642;2022-12-20T09:28:29;4.95;;;2.88;;
26977;SDS011;56314;48.088;11.642;2022-12-20T09:30:58;6.40;;;3.72;;
26977;SDS011;56314;48.088;11.642;2022-12-20T09:33:24;8.35;;;3.28;;
26977;SDS011;56314;48.088;11.642;2022-12-20T09:35:50;5.35;;;3.40;;
26977;SDS011;56314;48.088;11.642;2022-12-20T09:38:15;6.55;;;3.42;;
26977;SDS011;56314;48.088;11.642;2022-12-20T09:40:44;6.60;;;3.83;;
26977;SDS011;56314;48.088;11.642;2022-12-20T09:43:12;10.07;;;4.25;;
26977;SDS011;56314;48.088;11.642;2022-12-20T09:45:39;8.55;;;3.85;;
26977;SDS011;56314;48.088;11.642;2022-12-20T09:48:08;8.23;;;4.47;;
26977;SDS011;56314;48.088;11.642;2022-12-20T09:56:22;8.45;;;4.75;;
26977;SDS011;56314;48.088;11.642;2022-12-20T10:01:25;6.37;;;4.57;;
26977;SDS011;56314;48.088;11.642;2022-12-20T10:03:52;9.10;;;4.65;;
26977;SDS011;56314;48.088;11.642;2022-12-20T10:11:33;8.18;;;4.30;;
26977;SDS011;56314;48.088;11.642;2022-12-20T10:17:15;9.32;;;4.88;;
26977;SDS011;56314;48.088;11.642;2022-12-20T10:25:50;9.65;;;5.03;;
26977;SDS011;56314;48.088;11.642;2022-12-20T10:28:18;10.02;;;5.15;;
26977;SDS011;56314;48.088;11.642;2022-12-20T10:30:48;10.25;;;5.25;;
26977;SDS011;56314;48.088;11.642;2022-12-20T10:33:21;9.25;;;5.07;;
26977;SDS011;56314;48.088;11.642;2022-12-20T10:35:47;9.05;;;4.90;;
26977;SDS011;56314;48.088;11.642;2022-12-20T10:38:14;8.23;;;4.50;;
26977;SDS011;56314;48.088;11.642;2022-12-20T10:40:43;7.55;;;4.20;;
26977;SDS011;56314;48.088;11.642;2022-12-20T10:43:18;9.30;;;4.50;;
26977;SDS011;56314;48.088;11.642;2022-12-20T10:50:58;9.50;;;4.85;;
26977;SDS011;56314;48.088;11.642;2022-12-20T10:53:26;10.32;;;4.72;;
26977;SDS011;56314;48.088;11.642;2022-12-20T10:55:52;7.53;;;4.70;;
26977;SDS011;56314;48.088;11.642;2022-12-20T10:58:34;6.93;;;4.18;;
26977;SDS011;56314;48.088;11.642;2022-12-20T11:01:07;6.38;;;4.43;;
26977;SDS011;56314;48.088;11.642;2022-12-20T11:06:49;8.60;;;4.97;;
26977;SDS011;56314;48.088;11.642;2022-12-20T11:09:22;6.53;;;4.50;;
26977;SDS011;56314;48.088;11.642;2022-12-20T11:12:12;9.18;;;6.00;;
26977;SDS011;56314;48.088;11.642;2022-12-20T11:14:41;12.50;;;6.00;;
26977;SDS011;56314;48.088;11.642;2022-12-20T11:23:02;10.60;;;5.28;;
26977;SDS011;56314;48.088;11.642;2022-12-20T11:25:28;10.85;;;5.28;;
26977;SDS011;56314;48.088;11.642;2022-12-20T11:28:34;10.93;;;5.22;;
26977;SDS011;56314;48.088;11.642;2022-12-20T11:33:40;10.93;;;5.30;;
26977;SDS011;56314;48.088;11.642;2022-12-20T11:39:31;10.57;;;5.88;;
26977;SDS011;56314;48.088;11.642;2022-12-20T11:41:47;8.60;;;5.35;;
26977;SDS011;56314;48.088;11.642;2022-12-20T11:47:20;10.45;;;6.05;;
26977;SDS011;56314;48.088;11.642;2022-12-20T11:55:56;12.63;;;6.15;;
26977;SDS011;56314;48.088;11.642;2022-12-20T12:01:08;12.43;;;6.30;;
26977;SDS011;56314;48.088;11.642;2022-12-20T12:03:38;12.10;;;6.07;;
26977;SDS011;56314;48.088;11.642;2022-12-20T12:06:17;10.75;;;6.70;;
26977;SDS011;56314;48.088;11.642;2022-12-20T12:08:54;12.05;;;6.05;;
26977;SDS011;56314;48.088;11.642;2022-12-20T12:11:52;11.77;;;7.38;;
26977;SDS011;56314;48.088;11.642;2022-12-20T12:18:17;9.15;;;6.05;;
26977;SDS011;56314;48.088;11.642;2022-12-20T12:23:29;7.30;;;4.65;;
26977;SDS011;56314;48.088;11.642;2022-12-20T12:26:21;8.07;;;4.85;;
26977;SDS011;56314;48.088;11.642;2022-12-20T12:28:53;6.45;;;4.35;;
26977;SDS011;56314;48.088;11.642;2022-12-20T12:31:28;7.00;;;4.70;;
26977;SDS011;56314;48.088;11.642;2022-12-20T12:39:54;12.50;;;5.20;;
26977;SDS011;56314;48.088;11.642;2022-12-20T12:45:48;7.85;;;5.00;;
26977;SDS011;56314;48.088;11.642;2022-12-20T12:48:18;10.25;;;4.82;;
26977;SDS011;56314;48.088;11.642;2022-12-20T12:50:46;9.43;;;5.05;;
26977;SDS011;56314;48.088;11.642;2022-12-20T12:53:19;9.32;;;5.40;;
26977;SDS011;56314;48.088;11.642;2022-12-20T12:55:51;10.13;;;5.05;;
26977;SDS011;56314;48.088;11.642;2022-12-20T13:11:38;11.10;;;5.63;;
26977;SDS011;56314;48.088;11.642;2022-12-20T13:16:43;10.15;;;5.22;;
26977;SDS011;56314;48.088;11.642;2022-12-20T13:19:31;9.13;;;5.15;;
26977;SDS011;56314;48.088;11.642;2022-12-20T13:27:02;7.40;;;4.53;;
26977;SDS011;56314;48.088;11.642;2022-12-20T13:29:50;8.52;;;4.45;;
26977;SDS011;56314;48.088;11.642;2022-12-20T13:38:01;7.18;;;4.53;;
26977;SDS011;56314;48.088;11.642;2022-12-20T13:40:41;7.78;;;4.32;;
26977;SDS011;56314;48.088;11.642;2022-12-20T13:43:22;8.07;;;4.78;;
26977;SDS011;56314;48.088;11.642;2022-12-20T13:48:41;8.68;;;5.97;;
26977;SDS011;56314;48.088;11.642;2022-12-20T13:51:17;7.93;;;4.63;;
26977;SDS011;56314;48.088;11.642;2022-12-20T13:53:53;14.48;;;5.88;;
26977;SDS011;56314;48.088;11.642;2022-12-20T13:59:06;9.18;;;5.80;;
26977;SDS011;56314;48.088;11.642;2022-12-20T14:01:45;12.15;;;6.03;;
26977;SDS011;56314;48.088;11.642;2022-12-20T14:04:12;9.68;;;6.03;;
26977;SDS011;56314;48.088;11.642;2022-12-20T14:06:38;9.45;;;6.05;;
26977;SDS011;56314;48.088;11.642;2022-12-20T14:09:04;9.05;;;5.72;;
26977;SDS011;56314;48.088;11.642;2022-12-20T14:11:52;13.48;;;5.68;;
26977;SDS011;56314;48.088;11.642;2022-12-20T14:14:17;14.05;;;6.25;;
26977;SDS011;56314;48.088;11.642;2022-12-20T14:16:42;12.98;;;7.28;;
26977;SDS011;56314;48.088;11.642;2022-12-20T14:19:11;8.38;;;5.82;;
26977;SDS011;56314;48.088;11.642;2022-12-20T14:21:40;13.00;;;6.50;;
26977;SDS011;56314;48.088;11.642;2022-12-20T14:24:11;11.63;;;6.82;;
26977;SDS011;56314;48.088;11.642;2022-12-20T14:26:46;10.30;;;5.88;;
26977;SDS011;56314;48.088;11.642;2022-12-20T14:29:16;11.07;;;6.47;;
26977;SDS011;56314;48.088;11.642;2022-12-20T14:31:44;10.68;;;6.53;;
26977;SDS011;56314;48.088;11.642;2022-12-20T14:34:28;18.70;;;11.82;;
26977;SDS011;56314;48.088;11.642;2022-12-20T14:39:59;11.02;;;5.15;;
26977;SDS011;56314;48.088;11.642;2022-12-20T14:42:34;5.97;;;4.45;;
26977;SDS011;56314;48.088;11.642;2022-12-20T14:45:05;10.70;;;5.00;;
26977;SDS011;56314;48.088;11.642;2022-12-20T14:48:14;6.78;;;4.47;;
26977;SDS011;56314;48.088;11.642;2022-12-20T14:50:39;9.18;;;5.53;;
26977;SDS011;56314;48.088;11.642;2022-12-20T14:53:16;13.73;;;5.78;;
26977;SDS011;56314;48.088;11.642;2022-12-20T14:55:49;7.50;;;6.07;;
26977;SDS011;56314;48.088;11.642;2022-12-20T14:58:25;7.60;;;5.95;;
26977;SDS011;56314;48.088;11.642;2022-12-20T15:01:02;8.65;;;6.30;;
26977;SDS011;56314;48.088;11.642;2022-12-20T15:03:51;8.05;;;5.32;;
26977;SDS011;56314;48.088;11.642;2022-12-20T15:06:33;12.45;;;7.00;;
26977;SDS011;56314;48.088;11.642;2022-12-20T15:09:05;18.02;;;11.85;;
26977;SDS011;56314;48.088;11.642;2022-12-20T15:11:30;22.27;;;13.52;;
26977;SDS011;56314;48.088;11.642;2022-12-20T15:13:59;15.43;;;8.27;;
26977;SDS011;56314;48.088;11.642;2022-12-20T15:16:27;10.13;;;6.65;;
26977;SDS011;56314;48.088;11.642;2022-12-20T15:18:58;12.90;;;7.13;;
26977;SDS011;56314;48.088;11.642;2022-12-20T15:21:32;11.30;;;7.03;;
26977;SDS011;56314;48.088;11.642;2022-12-20T15:24:02;11.30;;;7.25;;
26977;SDS011;56314;48.088;11.642;2022-12-20T15:26:32;9.68;;;6.85;;
26977;SDS011;56314;48.088;11.642;2022-12-20T15:28:58;10.52;;;6.70;;
26977;SDS011;56314;48.088;11.642;2022-12-20T15:31:24;12.90;;;7.28;;
26977;SDS011;56314;48.088;11.642;2022-12-20T15:33:51;10.88;;;7.00;;
26977;SDS011;56314;48.088;11.642;2022-12-20T15:36:19;22.50;;;12.48;;
26977;SDS011;56314;48.088;11.642;2022-12-20T15:38:46;17.02;;;9.43;;
26977;SDS011;56314;48.088;11.642;2022-12-20T15:41:13;15.80;;;8.75;;
26977;SDS011;56314;48.088;11.642;2022-12-20T15:43:43;14.25;;;9.27;;
26977;SDS011;56314;48.088;11.642;2022-12-20T15:46:09;14.07;;;9.07;;
26977;SDS011;56314;48.088;11.642;2022-12-20T15:48:34;11.88;;;8.07;;
26977;SDS011;56314;48.088;11.642;2022-12-20T15:51:00;10.52;;;7.68;;
26977;SDS011;56314;48.088;11.642;2022-12-20T15:53:27;14.85;;;8.75;;
26977;SDS011;56314;48.088;11.642;2022-12-20T15:55:57;13.98;;;7.55;;
26977;SDS011;56314;48.088;11.642;2022-12-20T15:58:23;12.07;;;8.35;;
26977;SDS011;56314;48.088;11.642;2022-12-20T16:00:50;13.75;;;8.75;;
26977;SDS011;56314;48.088;11.642;2022-12-20T16:03:19;14.57;;;8.63;;
26977;SDS011;56314;48.088;11.642;2022-12-20T16:05:47;13.25;;;9.10;;
26977;SDS011;56314;48.088;11.642;2022-12-20T16:08:15;16.20;;;10.43;;
26977;SDS011;56314;48.088;11.642;2022-12-20T16:10:43;15.13;;;9.30;;
26977;SDS011;56314;48.088;11.642;2022-12-20T16:13:13;14.60;;;9.95;;
26977;SDS011;56314;48.088;11.642;2022-12-20T16:15:41;13.65;;;9.00;;
26977;SDS011;56314;48.088;11.642;2022-12-20T16:18:06;16.45;;;9.73;;
26977;SDS011;56314;48.088;11.642;2022-12-20T16:20:32;17.65;;;10.65;;
26977;SDS011;56314;48.088;11.642;2022-12-20T16:22:57;14.52;;;9.68;;
26977;SDS011;56314;48.088;11.642;2022-12-20T16:25:33;16.80;;;11.18;;
26977;SDS011;56314;48.088;11.642;2022-12-20T16:28:00;29.25;;;17.15;;
26977;SDS011;56314;48.088;11.642;2022-12-20T16:30:26;14.23;;;10.07;;
26977;SDS011;56314;48.088;11.642;2022-12-20T16:32:52;16.45;;;11.02;;
26977;SDS011;56314;48.088;11.642;2022-12-20T16:37:54;17.40;;;12.25;;
26977;SDS011;56314;48.088;11.642;2022-12-20T16:40:22;16.67;;;10.63;;